Wetterdaten: Dienstag / Mittwoch, 28.07.2010
Datum Zeit Temp. A. Feuchte A. Luftdruck Regen Wind Richtung Richtung Sonnenschein UV Solar Windben
27.07.2010 17:00 23,0 C 57 % 1015,7 hPa 0,0 mm 3,2 km/h (1 Bft) W 270 10 min 3 UV-I 729 W/m 8,0 km/h (2 Bft)
27.07.2010 17:10 23,6 C 53 % 1015,6 hPa 0,0 mm 1,6 km/h (1 Bft) S-SW 202 10 min 3 UV-I 626 W/m 6,4 km/h (2 Bft)
27.07.2010 17:20 23,6 C 50 % 1015,6 hPa 0,0 mm 1,6 km/h (1 Bft) W-SW 247 10 min 3 UV-I 577 W/m 8,0 km/h (2 Bft)
27.07.2010 17:30 23,3 C 51 % 1015,6 hPa 0,0 mm 1,6 km/h (1 Bft) W-SW 247 10 min 3 UV-I 538 W/m 6,4 km/h (2 Bft)
27.07.2010 17:40 23,7 C 51 % 1015,6 hPa 0,0 mm 3,2 km/h (1 Bft) W-SW 247 10 min 2 UV-I 522 W/m 8,0 km/h (2 Bft)
27.07.2010 17:50 23,8 C 51 % 1015,7 hPa 0,0 mm 3,2 km/h (1 Bft) W-NW 292 10 min 2 UV-I 499 W/m 8,0 km/h (2 Bft)
27.07.2010 18:00 24,3 C 49 % 1015,6 hPa 0,0 mm 1,6 km/h (1 Bft) W 270 10 min 2 UV-I 485 W/m 6,4 km/h (2 Bft)
27.07.2010 18:10 23,6 C 50 % 1015,6 hPa 0,0 mm 1,6 km/h (1 Bft) W 270 10 min 2 UV-I 464 W/m 8,0 km/h (2 Bft)
27.07.2010 18:20 22,9 C 54 % 1015,5 hPa 0,0 mm 0,0 km/h (0 Bft) W 270 0 min 1 UV-I 169 W/m 6,4 km/h (2 Bft)
27.07.2010 18:30 23,2 C 54 % 1015,5 hPa 0,0 mm 1,6 km/h (1 Bft) NW 315 10 min 1 UV-I 487 W/m 8,0 km/h (2 Bft)
27.07.2010 18:40 24,5 C 50 % 1015,5 hPa 0,0 mm 0,0 km/h (0 Bft) NW 315 10 min 1 UV-I 461 W/m 3,2 km/h (1 Bft)
27.07.2010 18:50 24,3 C 47 % 1015,5 hPa 0,0 mm 3,2 km/h (1 Bft) W-SW 247 10 min 1 UV-I 399 W/m 11,3 km/h (2 Bft)
27.07.2010 19:00 22,9 C 50 % 1015,6 hPa 0,0 mm 4,8 km/h (1 Bft) W 270 0 min 1 UV-I 137 W/m 11,3 km/h (2 Bft)
27.07.2010 19:10 22,6 C 51 % 1015,7 hPa 0,0 mm 3,2 km/h (1 Bft) W 270 10 min 1 UV-I 279 W/m 16,1 km/h (3 Bft)
27.07.2010 19:20 23,3 C 50 % 1015,6 hPa 0,0 mm 4,8 km/h (1 Bft) W-SW 247 10 min 1 UV-I 297 W/m 16,1 km/h (3 Bft)
27.07.2010 19:30 22,8 C 51 % 1015,6 hPa 0,0 mm 6,4 km/h (2 Bft) W-SW 247 10 min 1 UV-I 246 W/m 19,3 km/h (3 Bft)
27.07.2010 19:40 22,9 C 51 % 1015,6 hPa 0,0 mm 6,4 km/h (2 Bft) W 270 10 min 1 UV-I 234 W/m 20,9 km/h (4 Bft)
27.07.2010 19:50 22,7 C 51 % 1015,6 hPa 0,0 mm 6,4 km/h (2 Bft) W-SW 247 10 min 1 UV-I 192 W/m 19,3 km/h (3 Bft)
27.07.2010 20:00 22,4 C 53 % 1015,6 hPa 0,0 mm 4,8 km/h (1 Bft) W 270 10 min 1 UV-I 160 W/m 16,1 km/h (3 Bft)
27.07.2010 20:10 21,8 C 55 % 1015,7 hPa 0,0 mm 4,8 km/h (1 Bft) W 270 0 min 0 UV-I 53 W/m 14,5 km/h (3 Bft)
27.07.2010 20:20 21,5 C 57 % 1015,7 hPa 0,0 mm 1,6 km/h (1 Bft) W 270 0 min 0 UV-I 42 W/m 4,8 km/h (1 Bft)
27.07.2010 20:30 21,2 C 58 % 1015,6 hPa 0,0 mm 0,0 km/h (0 Bft) W-NW 292 0 min 0 UV-I 35 W/m 8,0 km/h (2 Bft)
27.07.2010 20:40 20,9 C 59 % 1015,6 hPa 0,0 mm 0,0 km/h (0 Bft) W-NW 292 0 min 0 UV-I 19 W/m 4,8 km/h (1 Bft)
27.07.2010 20:50 20,6 C 60 % 1015,6 hPa 0,0 mm 0,0 km/h (0 Bft) W-NW 292 0 min 0 UV-I 12 W/m 1,6 km/h (1 Bft)
27.07.2010 21:00 20,3 C 62 % 1015,6 hPa 0,0 mm 0,0 km/h (0 Bft) W-NW 292 0 min 0 UV-I 11 W/m 3,2 km/h (1 Bft)
27.07.2010 21:10 20,0 C 62 % 1015,7 hPa 0,0 mm 0,0 km/h (0 Bft) W-NW 292 0 min 0 UV-I 5 W/m 1,6 km/h (1 Bft)
27.07.2010 21:20 19,6 C 64 % 1015,8 hPa 0,0 mm 0,0 km/h (0 Bft) W-NW 292 0 min 0 UV-I 0 W/m 1,6 km/h (1 Bft)
27.07.2010 21:30 19,3 C 65 % 1016,0 hPa 0,0 mm 0,0 km/h (0 Bft) W-NW 292 0 min 0 UV-I 0 W/m 1,6 km/h (1 Bft)
27.07.2010 21:40 19,1 C 66 % 1016,0 hPa 0,0 mm 0,0 km/h (0 Bft) W-NW 292 0 min 0 UV-I 0 W/m 1,6 km/h (1 Bft)
27.07.2010 21:50 18,9 C 66 % 1016,4 hPa 0,0 mm 0,0 km/h (0 Bft) W-NW 292 0 min 0 UV-I 0 W/m 3,2 km/h (1 Bft)
27.07.2010 22:00 18,7 C 67 % 1016,5 hPa 0,0 mm 0,0 km/h (0 Bft) W-NW 292 0 min 0 UV-I 0 W/m 1,6 km/h (1 Bft)
27.07.2010 22:10 18,3 C 69 % 1016,5 hPa 0,0 mm 0,0 km/h (0 Bft) N 0 0 min 0 UV-I 0 W/m 0,0 km/h (0 Bft)
27.07.2010 22:20 18,1 C 70 % 1016,4 hPa 0,0 mm 0,0 km/h (0 Bft) N 0 0 min 0 UV-I 0 W/m 0,0 km/h (0 Bft)
27.07.2010 22:30 17,7 C 71 % 1016,5 hPa 0,0 mm 0,0 km/h (0 Bft) N 0 0 min 0 UV-I 0 W/m 0,0 km/h (0 Bft)
27.07.2010 22:40 17,5 C 72 % 1016,5 hPa 0,0 mm 0,0 km/h (0 Bft) N 0 0 min 0 UV-I 0 W/m 0,0 km/h (0 Bft)
27.07.2010 22:50 17,1 C 73 % 1016,4 hPa 0,0 mm 0,0 km/h (0 Bft) N 0 0 min 0 UV-I 0 W/m 0,0 km/h (0 Bft)
27.07.2010 23:00 16,8 C 74 % 1016,3 hPa 0,0 mm 0,0 km/h (0 Bft) N 0 0 min 0 UV-I 0 W/m 0,0 km/h (0 Bft)
27.07.2010 23:10 16,4 C 76 % 1016,4 hPa 0,0 mm 0,0 km/h (0 Bft) N 0 0 min 0 UV-I 0 W/m 0,0 km/h (0 Bft)
27.07.2010 23:20 16,1 C 77 % 1016,4 hPa 0,0 mm 0,0 km/h (0 Bft) N 0 0 min 0 UV-I 0 W/m 0,0 km/h (0 Bft)
27.07.2010 23:30 15,9 C 78 % 1016,5 hPa 0,0 mm 0,0 km/h (0 Bft) N 0 0 min 0 UV-I 0 W/m 0,0 km/h (0 Bft)
27.07.2010 23:40 15,9 C 79 % 1016,5 hPa 0,0 mm 0,0 km/h (0 Bft) N 0 0 min 0 UV-I 0 W/m 0,0 km/h (0 Bft)
27.07.2010 23:50 15,9 C 78 % 1016,5 hPa 0,0 mm 0,0 km/h (0 Bft) N 0 0 min 0 UV-I 0 W/m 0,0 km/h (0 Bft)
28.07.2010 00:00 16,1 C 78 % 1016,5 hPa 0,0 mm 0,0 km/h (0 Bft) W-NW 292 0 min 0 UV-I 0 W/m 1,6 km/h (1 Bft)
28.07.2010 00:10 15,9 C 78 % 1016,4 hPa 0,0 mm 0,0 km/h (0 Bft) N 0 0 min 0 UV-I 0 W/m 0,0 km/h (0 Bft)
28.07.2010 00:20 15,7 C 79 % 1016,6 hPa 0,0 mm 0,0 km/h (0 Bft) N 0 0 min 0 UV-I 0 W/m 0,0 km/h (0 Bft)
28.07.2010 00:30 15,7 C 79 % 1016,6 hPa 0,0 mm 0,0 km/h (0 Bft) W-NW 292 0 min 0 UV-I 0 W/m 1,6 km/h (1 Bft)
28.07.2010 00:40 15,5 C 79 % 1016,5 hPa 0,0 mm 0,0 km/h (0 Bft) W-NW 292 0 min 0 UV-I 0 W/m 1,6 km/h (1 Bft)
28.07.2010 00:50 15,5 C 80 % 1016,6 hPa 0,0 mm 0,0 km/h (0 Bft) W-NW 292 0 min 0 UV-I 0 W/m 3,2 km/h (1 Bft)
28.07.2010 01:00 15,5 C 80 % 1016,6 hPa 0,0 mm 0,0 km/h (0 Bft) W-NW 292 0 min 0 UV-I 0 W/m 1,6 km/h (1 Bft)
28.07.2010 01:10 15,3 C 80 % 1016,5 hPa 0,0 mm 0,0 km/h (0 Bft) W-NW 292 0 min 0 UV-I 0 W/m 1,6 km/h (1 Bft)
28.07.2010 01:20 15,2 C 80 % 1016,5 hPa 0,0 mm 0,0 km/h (0 Bft) W-NW 292 0 min 0 UV-I 0 W/m 1,6 km/h (1 Bft)
28.07.2010 01:30 15,0 C 81 % 1016,4 hPa 0,0 mm 0,0 km/h (0 Bft) W-NW 292 0 min 0 UV-I 0 W/m 1,6 km/h (1 Bft)
28.07.2010 01:40 14,8 C 82 % 1016,3 hPa 0,0 mm 0,0 km/h (0 Bft) N 0 0 min 0 UV-I 0 W/m 0,0 km/h (0 Bft)
28.07.2010 01:50 14,4 C 82 % 1016,3 hPa 0,0 mm 0,0 km/h (0 Bft) N 0 0 min 0 UV-I 0 W/m 0,0 km/h (0 Bft)
28.07.2010 02:00 14,2 C 84 % 1016,2 hPa 0,0 mm 0,0 km/h (0 Bft) N 0 0 min 0 UV-I 0 W/m 0,0 km/h (0 Bft)
28.07.2010 02:10 14,2 C 84 % 1016,2 hPa 0,0 mm 0,0 km/h (0 Bft) N 0 0 min 0 UV-I 0 W/m 0,0 km/h (0 Bft)
28.07.2010 02:20 14,0 C 85 % 1016,2 hPa 0,0 mm 0,0 km/h (0 Bft) N 0 0 min 0 UV-I 0 W/m 0,0 km/h (0 Bft)
28.07.2010 02:30 14,1 C 86 % 1016,2 hPa 0,0 mm 0,0 km/h (0 Bft) W-NW 292 0 min 0 UV-I 0 W/m 1,6 km/h (1 Bft)
28.07.2010 02:40 14,0 C 85 % 1016,0 hPa 0,0 mm 0,0 km/h (0 Bft) N 0 0 min 0 UV-I 0 W/m 0,0 km/h (0 Bft)
28.07.2010 02:50 14,1 C 86 % 1016,0 hPa 0,0 mm 0,0 km/h (0 Bft) W-NW 292 0 min 0 UV-I 0 W/m 1,6 km/h (1 Bft)
28.07.2010 03:00 14,0 C 86 % 1015,6 hPa 0,0 mm 0,0 km/h (0 Bft) N 0 0 min 0 UV-I 0 W/m 0,0 km/h (0 Bft)
28.07.2010 03:10 13,9 C 86 % 1015,6 hPa 0,0 mm 0,0 km/h (0 Bft) N 0 0 min 0 UV-I 0 W/m 0,0 km/h (0 Bft)
28.07.2010 03:20 14,1 C 86 % 1015,4 hPa 0,0 mm 0,0 km/h (0 Bft) W-NW 292 0 min 0 UV-I 0 W/m 1,6 km/h (1 Bft)
28.07.2010 03:30 14,2 C 86 % 1015,3 hPa 0,0 mm 0,0 km/h (0 Bft) N 0 0 min 0 UV-I 0 W/m 0,0 km/h (0 Bft)
28.07.2010 03:40 14,2 C 86 % 1015,2 hPa 0,0 mm 0,0 km/h (0 Bft) N 0 0 min 0 UV-I 0 W/m 0,0 km/h (0 Bft)
28.07.2010 03:50 14,2 C 86 % 1015,0 hPa 0,0 mm 0,0 km/h (0 Bft) N 0 0 min 0 UV-I 0 W/m 0,0 km/h (0 Bft)
28.07.2010 04:00 14,3 C 86 % 1014,9 hPa 0,0 mm 0,0 km/h (0 Bft) N 0 0 min 0 UV-I 0 W/m 0,0 km/h (0 Bft)
28.07.2010 04:10 14,4 C 86 % 1014,9 hPa 0,0 mm 0,0 km/h (0 Bft) N 0 0 min 0 UV-I 0 W/m 0,0 km/h (0 Bft)
28.07.2010 04:20 14,6 C 85 % 1014,7 hPa 0,0 mm 0,0 km/h (0 Bft) N 0 0 min 0 UV-I 0 W/m 0,0 km/h (0 Bft)
28.07.2010 04:30 14,6 C 85 % 1014,7 hPa 0,0 mm 0,0 km/h (0 Bft) N 0 0 min 0 UV-I 0 W/m 0,0 km/h (0 Bft)
28.07.2010 04:40 14,6 C 85 % 1014,6 hPa 0,0 mm 0,0 km/h (0 Bft) N 0 0 min 0 UV-I 0 W/m 0,0 km/h (0 Bft)
28.07.2010 04:50 14,7 C 85 % 1014,5 hPa 0,0 mm 0,0 km/h (0 Bft) N 0 0 min 0 UV-I 0 W/m 0,0 km/h (0 Bft)
28.07.2010 05:00 14,7 C 85 % 1014,4 hPa 0,0 mm 0,0 km/h (0 Bft) N 0 0 min 0 UV-I 0 W/m 0,0 km/h (0 Bft)
28.07.2010 05:10 14,7 C 85 % 1014,2 hPa 0,0 mm 0,0 km/h (0 Bft) N 0 0 min 0 UV-I 0 W/m 0,0 km/h (0 Bft)
28.07.2010 05:20 14,7 C 85 % 1014,1 hPa 0,0 mm 0,0 km/h (0 Bft) W-NW 292 0 min 0 UV-I 0 W/m 1,6 km/h (1 Bft)
28.07.2010 05:30 14,7 C 85 % 1014,0 hPa 0,0 mm 0,0 km/h (0 Bft) W-NW 292 0 min 0 UV-I 0 W/m 3,2 km/h (1 Bft)
28.07.2010 05:40 14,8 C 85 % 1013,9 hPa 0,0 mm 0,0 km/h (0 Bft) W-NW 292 0 min 0 UV-I 0 W/m 3,2 km/h (1 Bft)
28.07.2010 05:50 14,8 C 85 % 1013,9 hPa 0,0 mm 0,0 km/h (0 Bft) W-NW 292 0 min 0 UV-I 0 W/m 1,6 km/h (1 Bft)
28.07.2010 06:00 15,0 C 85 % 1013,8 hPa 0,0 mm 0,0 km/h (0 Bft) W-NW 292 0 min 0 UV-I 5 W/m 3,2 km/h (1 Bft)
28.07.2010 06:10 15,0 C 85 % 1013,7 hPa 0,0 mm 0,0 km/h (0 Bft) W-NW 292 0 min 0 UV-I 7 W/m 4,8 km/h (1 Bft)
28.07.2010 06:20 15,3 C 84 % 1013,8 hPa 0,0 mm 0,0 km/h (0 Bft) S 180 0 min 0 UV-I 14 W/m 4,8 km/h (1 Bft)
28.07.2010 06:30 15,5 C 83 % 1013,7 hPa 0,0 mm 0,0 km/h (0 Bft) NO 45 0 min 0 UV-I 19 W/m 3,2 km/h (1 Bft)
28.07.2010 06:40 15,6 C 83 % 1013,7 hPa 0,0 mm 0,0 km/h (0 Bft) NO 45 0 min 0 UV-I 21 W/m 1,6 km/h (1 Bft)
28.07.2010 06:50 15,7 C 83 % 1013,6 hPa 0,0 mm 0,0 km/h (0 Bft) O-SO 112 0 min 0 UV-I 18 W/m 4,8 km/h (1 Bft)
28.07.2010 07:00 15,8 C 82 % 1013,6 hPa 0,0 mm 0,0 km/h (0 Bft) SO 135 0 min 0 UV-I 21 W/m 4,8 km/h (1 Bft)
28.07.2010 07:10 15,9 C 82 % 1013,6 hPa 0,0 mm 0,0 km/h (0 Bft) S-SO 157 0 min 0 UV-I 25 W/m 4,8 km/h (1 Bft)
28.07.2010 07:20 16,1 C 82 % 1013,5 hPa 0,0 mm 0,0 km/h (0 Bft) S-SO 157 0 min 0 UV-I 25 W/m 3,2 km/h (1 Bft)
28.07.2010 07:30 16,1 C 85 % 1013,4 hPa 0,3 mm 0,0 km/h (0 Bft) S-SO 157 0 min 0 UV-I 33 W/m 3,2 km/h (1 Bft)
28.07.2010 07:40 16,0 C 86 % 1013,3 hPa 0,0 mm 0,0 km/h (0 Bft) S-SO 157 0 min 0 UV-I 28 W/m 1,6 km/h (1 Bft)
28.07.2010 07:50 15,9 C 87 % 1013,3 hPa 0,3 mm 0,0 km/h (0 Bft) S-SO 157 0 min 0 UV-I 42 W/m 1,6 km/h (1 Bft)
28.07.2010 08:00 15,9 C 88 % 1013,2 hPa 2,0 mm 0,0 km/h (0 Bft) S 180 0 min 0 UV-I 32 W/m 3,2 km/h (1 Bft)
28.07.2010 08:10 15,9 C 88 % 1013,2 hPa 0,5 mm 0,0 km/h (0 Bft) S 180 0 min 0 UV-I 19 W/m 4,8 km/h (1 Bft)
28.07.2010 08:20 15,9 C 90 % 1013,2 hPa 0,0 mm 0,0 km/h (0 Bft) S 180 0 min 0 UV-I 47 W/m 6,4 km/h (2 Bft)
28.07.2010 08:30 16,1 C 90 % 1013,1 hPa 0,0 mm 0,0 km/h (0 Bft) S 180 0 min 1 UV-I 62 W/m 4,8 km/h (1 Bft)
28.07.2010 08:40 16,2 C 90 % 1013,1 hPa 0,0 mm 0,0 km/h (0 Bft) S 180 0 min 1 UV-I 95 W/m 3,2 km/h (1 Bft)
28.07.2010 08:50 16,4 C 91 % 1013,0 hPa 0,0 mm 0,0 km/h (0 Bft) S 180 0 min 1 UV-I 121 W/m 3,2 km/h (1 Bft)
28.07.2010 09:00 16,7 C 91 % 1012,8 hPa 0,0 mm 0,0 km/h (0 Bft) S 180 0 min 1 UV-I 127 W/m 1,6 km/h (1 Bft)
28.07.2010 09:10 16,8 C 91 % 1012,8 hPa 0,0 mm 0,0 km/h (0 Bft) S 180 0 min 1 UV-I 127 W/m 1,6 km/h (1 Bft)
28.07.2010 09:20 17,1 C 91 % 1012,7 hPa 0,0 mm 0,0 km/h (0 Bft) S 180 0 min 1 UV-I 107 W/m 3,2 km/h (1 Bft)
28.07.2010 09:30 17,2 C 91 % 1012,6 hPa 0,0 mm 0,0 km/h (0 Bft) S 180 0 min 1 UV-I 114 W/m 4,8 km/h (1 Bft)
28.07.2010 09:40 17,3 C 91 % 1012,6 hPa 0,0 mm 1,6 km/h (1 Bft) SW 225 0 min 1 UV-I 102 W/m 14,5 km/h (3 Bft)
28.07.2010 09:50 17,3 C 90 % 1012,6 hPa 0,0 mm 4,8 km/h (1 Bft) W-SW 247 0 min 1 UV-I 56 W/m 16,1 km/h (3 Bft)
28.07.2010 10:00 17,2 C 90 % 1012,6 hPa 0,0 mm 4,8 km/h (1 Bft) SW 225 0 min 0 UV-I 35 W/m 14,5 km/h (3 Bft)
28.07.2010 10:10 17,2 C 90 % 1012,7 hPa 0,0 mm 4,8 km/h (1 Bft) W 270 0 min 0 UV-I 49 W/m 19,3 km/h (3 Bft)
28.07.2010 10:20 17,3 C 90 % 1012,7 hPa 0,0 mm 6,4 km/h (2 Bft) W 270 0 min 0 UV-I 51 W/m 22,5 km/h (4 Bft)
28.07.2010 10:30 17,3 C 90 % 1012,7 hPa 0,0 mm 6,4 km/h (2 Bft) W-SW 247 0 min 0 UV-I 49 W/m 17,7 km/h (3 Bft)
28.07.2010 10:40 17,4 C 90 % 1012,8 hPa 0,0 mm 4,8 km/h (1 Bft) W 270 0 min 0 UV-I 33 W/m 17,7 km/h (3 Bft)
28.07.2010 10:50 17,4 C 90 % 1012,9 hPa 0,0 mm 8,0 km/h (2 Bft) W 270 0 min 0 UV-I 37 W/m 19,3 km/h (3 Bft)
28.07.2010 11:00 17,4 C 90 % 1012,9 hPa 0,0 mm 8,0 km/h (2 Bft) W 270 0 min 0 UV-I 40 W/m 19,3 km/h (3 Bft)
28.07.2010 11:10 17,5 C 90 % 1012,9 hPa 0,0 mm 6,4 km/h (2 Bft) W 270 0 min 1 UV-I 90 W/m 19,3 km/h (3 Bft)
28.07.2010 11:20 17,7 C 90 % 1013,0 hPa 0,0 mm 4,8 km/h (1 Bft) W 270 0 min 2 UV-I 257 W/m 16,1 km/h (3 Bft)
28.07.2010 11:30 18,1 C 90 % 1013,0 hPa 0,0 mm 8,0 km/h (2 Bft) W 270 0 min 3 UV-I 360 W/m 17,7 km/h (3 Bft)
28.07.2010 11:40 18,8 C 89 % 1012,8 hPa 0,3 mm 6,4 km/h (2 Bft) W 270 10 min 4 UV-I 613 W/m 17,7 km/h (3 Bft)
28.07.2010 11:50 18,3 C 88 % 1012,8 hPa 1,3 mm 6,4 km/h (2 Bft) W-SW 247 0 min 2 UV-I 264 W/m 17,7 km/h (3 Bft)
28.07.2010 12:00 18,4 C 91 % 1012,8 hPa 0,0 mm 4,8 km/h (1 Bft) W 270 10 min 7 UV-I 668 W/m 17,7 km/h (3 Bft)
28.07.2010 12:10 19,6 C 90 % 1012,7 hPa 0,0 mm 4,8 km/h (1 Bft) W-NW 292 10 min 7 UV-I 1118 W/m 16,1 km/h (3 Bft)
28.07.2010 12:20 18,2 C 86 % 1013,1 hPa 0,5 mm 9,7 km/h (2 Bft) W-NW 292 0 min 2 UV-I 163 W/m 32,2 km/h (5 Bft)
28.07.2010 12:30 18,1 C 88 % 1013,1 hPa 0,0 mm 6,4 km/h (2 Bft) NW 315 0 min 3 UV-I 281 W/m 19,3 km/h (3 Bft)
28.07.2010 12:40 17,9 C 87 % 1013,1 hPa 0,0 mm 6,4 km/h (2 Bft) W-NW 292 0 min 2 UV-I 236 W/m 17,7 km/h (3 Bft)
28.07.2010 12:50 18,2 C 87 % 1013,1 hPa 0,0 mm 4,8 km/h (1 Bft) W-NW 292 0 min 3 UV-I 302 W/m 17,7 km/h (3 Bft)
28.07.2010 13:00 18,6 C 84 % 1013,1 hPa 0,0 mm 3,2 km/h (1 Bft) W-NW 292 0 min 3 UV-I 346 W/m 14,5 km/h (3 Bft)
28.07.2010 13:10 18,7 C 82 % 1013,2 hPa 0,0 mm 4,8 km/h (1 Bft) W 270 0 min 3 UV-I 306 W/m 20,9 km/h (4 Bft)
28.07.2010 13:20 18,8 C 80 % 1013,2 hPa 0,0 mm 3,2 km/h (1 Bft) W-NW 292 0 min 3 UV-I 308 W/m 14,5 km/h (3 Bft)
28.07.2010 13:30 18,9 C 78 % 1013,2 hPa 0,0 mm 8,0 km/h (2 Bft) W 270 0 min 4 UV-I 424 W/m 16,1 km/h (3 Bft)
28.07.2010 13:40 19,4 C 75 % 1013,2 hPa 0,0 mm 6,4 km/h (2 Bft) W 270 10 min 5 UV-I 575 W/m 19,3 km/h (3 Bft)
28.07.2010 13:50 19,9 C 74 % 1013,1 hPa 0,0 mm 6,4 km/h (2 Bft) W-NW 292 10 min 6 UV-I 647 W/m 19,3 km/h (3 Bft)
28.07.2010 14:00 20,0 C 72 % 1013,2 hPa 0,0 mm 6,4 km/h (2 Bft) W 270 10 min 6 UV-I 638 W/m 20,9 km/h (4 Bft)
28.07.2010 14:10 20,6 C 69 % 1013,0 hPa 0,0 mm 6,4 km/h (2 Bft) NW 315 10 min 8 UV-I 1243 W/m 20,9 km/h (4 Bft)
28.07.2010 14:20 21,0 C 68 % 1012,8 hPa 0,0 mm 4,8 km/h (1 Bft) W 270 10 min 7 UV-I 904 W/m 16,1 km/h (3 Bft)
28.07.2010 14:30 21,4 C 66 % 1012,7 hPa 0,0 mm 4,8 km/h (1 Bft) W 270 10 min 7 UV-I 1004 W/m 16,1 km/h (3 Bft)
28.07.2010 14:40 21,1 C 68 % 1012,7 hPa 0,0 mm 3,2 km/h (1 Bft) W-NW 292 10 min 6 UV-I 1018 W/m 11,3 km/h (2 Bft)
28.07.2010 14:50 21,4 C 67 % 1012,4 hPa 0,0 mm 3,2 km/h (1 Bft) NW 315 10 min 6 UV-I 916 W/m 14,5 km/h (3 Bft)
28.07.2010 15:00 21,3 C 67 % 1012,4 hPa 0,0 mm 3,3 km/h (1 Bft) W-NW 297 0 min 3 UV-I 258 W/m 9,7 km/h (2 Bft)
28.07.2010 15:10 21,2 C 69 % 1012,5 hPa 0,0 mm 2,6 km/h (1 Bft) N-NO 15 0 min 3 UV-I 337 W/m 11,3 km/h (2 Bft)
28.07.2010 15:20 21,3 C 66 % 1012,4 hPa 0,0 mm 3,4 km/h (1 Bft) W-NW 287 0 min 2 UV-I 254 W/m 14,5 km/h (3 Bft)
28.07.2010 15:30 21,0 C 66 % 1012,3 hPa 0,0 mm 5,8 km/h (2 Bft) W-NW 302 0 min 2 UV-I 239 W/m 17,7 km/h (3 Bft)
28.07.2010 15:40 21,1 C 67 % 1012,3 hPa 0,0 mm 3,2 km/h (1 Bft) N-NW 337 0 min 2 UV-I 208 W/m 11,3 km/h (2 Bft)
28.07.2010 15:50 21,4 C 66 % 1012,2 hPa 0,0 mm 4,0 km/h (1 Bft) W-NW 292 0 min 3 UV-I 289 W/m 17,7 km/h (3 Bft)
28.07.2010 16:00 21,4 C 65 % 1012,1 hPa 0,0 mm 4,1 km/h (1 Bft) W 272 0 min 2 UV-I 291 W/m 6,4 km/h (2 Bft)
_ Min-Zeit 02:20 18:50 16:00 - 18:20 - - - - - 22:10
Minimum _ 13.9 C 47 % 1012.1 hPa - 0.0 km/h (0 Bft) - - - - - 0.0 km/h (0 Bft)
_ Max-Zeit 18:50 08:50 00:20 08:00 12:20 - - 17:00 14:10 14:10 12:20
Maximum _ 24.7 C 91 % 1016.6 hPa 2.0 mm 9.7 km/h
W-NW (2 Bft)
- - 10 min 8 UV-I 1243 W/m 32.2 km/h
NW (5 Bft)
Durchschnitt _ 18.0 C 76 % 1014.5 hPa #5.1 mm 2.0 km/h (1 Bft) W - #1:50 h 3 UV-I 264 W/m 7.4 km/h (2 Bft)